Terminal Aerodrome Forecast
Issued by NWS

Current Version | Previous Version | Graphics & Text | Print | Product List | Glossary On
Versions: 1 2 3 4 5 6 7 8 9 10 11 12 13 14 15 16 17
000
FTUS41 KILN 181700
TAFLCK
TAF
KLCK 181732Z 1818/1918 28005KT P6SM OVC020
     FM182000 28006KT P6SM -SN OVC018
     FM190000 28005KT P6SM OVC025
     FM190300 28004KT P6SM OVC015
     FM191600 29005KT P6SM OVC022=

USA.gov is the U.S. government's official web portal to all federal, state and local government web resources and services.